sensor_id;sensor_type;location;lat;lon;timestamp;temperature;humidity
42019;DHT22;27703;51.980;5.848;2022-10-31T00:01:33;14.40;99.90
42019;DHT22;27703;51.980;5.848;2022-10-31T00:03:59;14.40;99.90
42019;DHT22;27703;51.980;5.848;2022-10-31T00:06:25;14.40;99.90
42019;DHT22;27703;51.980;5.848;2022-10-31T00:08:56;14.40;99.90
42019;DHT22;27703;51.980;5.848;2022-10-31T00:11:22;14.30;99.90
42019;DHT22;27703;51.980;5.848;2022-10-31T00:13:48;14.30;99.90
42019;DHT22;27703;51.980;5.848;2022-10-31T00:16:15;14.20;99.90
42019;DHT22;27703;51.980;5.848;2022-10-31T00:18:41;14.20;99.90
42019;DHT22;27703;51.980;5.848;2022-10-31T00:21:07;14.10;99.90
42019;DHT22;27703;51.980;5.848;2022-10-31T00:23:32;14.10;99.90
42019;DHT22;27703;51.980;5.848;2022-10-31T00:26:02;14.10;99.90
42019;DHT22;27703;51.980;5.848;2022-10-31T00:28:28;14.10;99.90
42019;DHT22;27703;51.980;5.848;2022-10-31T00:30:58;14.10;99.90
42019;DHT22;27703;51.980;5.848;2022-10-31T00:33:24;14.10;99.90
42019;DHT22;27703;51.980;5.848;2022-10-31T00:35:50;14.10;99.90
42019;DHT22;27703;51.980;5.848;2022-10-31T00:38:16;14.10;99.90
42019;DHT22;27703;51.980;5.848;2022-10-31T00:40:41;14.10;99.90
42019;DHT22;27703;51.980;5.848;2022-10-31T00:43:07;14.10;99.90
42019;DHT22;27703;51.980;5.848;2022-10-31T00:45:32;14.10;99.90
42019;DHT22;27703;51.980;5.848;2022-10-31T00:47:58;14.00;99.90
42019;DHT22;27703;51.980;5.848;2022-10-31T00:50:23;14.00;99.90
42019;DHT22;27703;51.980;5.848;2022-10-31T00:52:49;14.00;99.90
42019;DHT22;27703;51.980;5.848;2022-10-31T00:55:14;14.00;99.90
42019;DHT22;27703;51.980;5.848;2022-10-31T00:57:40;13.90;99.90
42019;DHT22;27703;51.980;5.848;2022-10-31T01:00:06;13.90;99.90
42019;DHT22;27703;51.980;5.848;2022-10-31T01:02:32;13.90;99.90
42019;DHT22;27703;51.980;5.848;2022-10-31T01:04:57;13.90;99.90
42019;DHT22;27703;51.980;5.848;2022-10-31T01:07:23;13.90;99.90
42019;DHT22;27703;51.980;5.848;2022-10-31T01:09:48;13.90;99.90
42019;DHT22;27703;51.980;5.848;2022-10-31T01:12:14;13.80;99.90
42019;DHT22;27703;51.980;5.848;2022-10-31T01:14:43;13.80;99.90
42019;DHT22;27703;51.980;5.848;2022-10-31T01:17:10;13.90;99.90
42019;DHT22;27703;51.980;5.848;2022-10-31T01:19:35;13.80;99.90
42019;DHT22;27703;51.980;5.848;2022-10-31T01:22:01;13.90;99.90
42019;DHT22;27703;51.980;5.848;2022-10-31T01:24:26;13.90;99.90
42019;DHT22;27703;51.980;5.848;2022-10-31T01:26:52;13.90;99.90
42019;DHT22;27703;51.980;5.848;2022-10-31T01:29:17;13.90;99.90
42019;DHT22;27703;51.980;5.848;2022-10-31T01:31:43;13.90;99.90
42019;DHT22;27703;51.980;5.848;2022-10-31T01:34:13;13.80;99.90
42019;DHT22;27703;51.980;5.848;2022-10-31T01:36:39;13.80;99.90
42019;DHT22;27703;51.980;5.848;2022-10-31T01:39:07;13.80;99.90
42019;DHT22;27703;51.980;5.848;2022-10-31T01:41:36;13.80;99.90
42019;DHT22;27703;51.980;5.848;2022-10-31T01:46:51;13.80;99.90
42019;DHT22;27703;51.980;5.848;2022-10-31T01:49:34;13.80;99.90
42019;DHT22;27703;51.980;5.848;2022-10-31T01:52:24;13.80;99.90
42019;DHT22;27703;51.980;5.848;2022-10-31T01:55:16;13.80;99.90
42019;DHT22;27703;51.980;5.848;2022-10-31T01:57:45;13.80;99.90
42019;DHT22;27703;51.980;5.848;2022-10-31T02:00:12;13.80;99.90
42019;DHT22;27703;51.980;5.848;2022-10-31T02:02:38;13.80;99.90
42019;DHT22;27703;51.980;5.848;2022-10-31T02:05:08;13.80;99.90
42019;DHT22;27703;51.980;5.848;2022-10-31T02:10:15;13.80;99.90
42019;DHT22;27703;51.980;5.848;2022-10-31T02:12:41;13.80;99.90
42019;DHT22;27703;51.980;5.848;2022-10-31T02:15:08;13.70;99.90
42019;DHT22;27703;51.980;5.848;2022-10-31T02:17:34;13.70;99.90
42019;DHT22;27703;51.980;5.848;2022-10-31T02:22:37;13.70;99.90
42019;DHT22;27703;51.980;5.848;2022-10-31T02:34:01;13.60;99.90
42019;DHT22;27703;51.980;5.848;2022-10-31T02:36:32;13.60;99.90
42019;DHT22;27703;51.980;5.848;2022-10-31T02:39:22;13.60;99.90
42019;DHT22;27703;51.980;5.848;2022-10-31T02:44:38;13.50;99.90
42019;DHT22;27703;51.980;5.848;2022-10-31T02:47:12;13.60;99.90
42019;DHT22;27703;51.980;5.848;2022-10-31T02:49:57;13.50;99.90
42019;DHT22;27703;51.980;5.848;2022-10-31T02:52:31;13.50;99.90
42019;DHT22;27703;51.980;5.848;2022-10-31T02:54:57;13.50;99.90
42019;DHT22;27703;51.980;5.848;2022-10-31T02:57:28;13.50;99.90
42019;DHT22;27703;51.980;5.848;2022-10-31T03:00:05;13.40;99.90
42019;DHT22;27703;51.980;5.848;2022-10-31T03:05:38;13.50;99.90
42019;DHT22;27703;51.980;5.848;2022-10-31T03:08:22;13.50;99.90
42019;DHT22;27703;51.980;5.848;2022-10-31T03:11:00;13.40;99.90
42019;DHT22;27703;51.980;5.848;2022-10-31T03:14:07;13.40;99.90
42019;DHT22;27703;51.980;5.848;2022-10-31T03:16:43;13.40;99.90
42019;DHT22;27703;51.980;5.848;2022-10-31T03:21:53;13.30;99.90
42019;DHT22;27703;51.980;5.848;2022-10-31T03:24:22;13.30;99.90
42019;DHT22;27703;51.980;5.848;2022-10-31T03:26:52;13.30;99.90
42019;DHT22;27703;51.980;5.848;2022-10-31T03:29:22;13.20;99.90
42019;DHT22;27703;51.980;5.848;2022-10-31T03:31:53;13.20;99.90
42019;DHT22;27703;51.980;5.848;2022-10-31T03:34:20;13.10;99.90
42019;DHT22;27703;51.980;5.848;2022-10-31T03:36:49;13.10;99.90
42019;DHT22;27703;51.980;5.848;2022-10-31T03:39:17;13.20;99.90
42019;DHT22;27703;51.980;5.848;2022-10-31T03:41:49;13.20;99.90
42019;DHT22;27703;51.980;5.848;2022-10-31T03:44:20;13.20;99.90
42019;DHT22;27703;51.980;5.848;2022-10-31T03:46:46;13.20;99.90
42019;DHT22;27703;51.980;5.848;2022-10-31T03:49:12;13.20;99.90
42019;DHT22;27703;51.980;5.848;2022-10-31T03:51:55;13.10;99.90
42019;DHT22;27703;51.980;5.848;2022-10-31T03:54:32;13.20;99.90
42019;DHT22;27703;51.980;5.848;2022-10-31T03:57:10;13.10;99.90
42019;DHT22;27703;51.980;5.848;2022-10-31T03:59:46;13.10;99.90
42019;DHT22;27703;51.980;5.848;2022-10-31T04:02:19;13.10;99.90
42019;DHT22;27703;51.980;5.848;2022-10-31T04:04:46;13.00;99.90
42019;DHT22;27703;51.980;5.848;2022-10-31T04:07:14;13.00;99.90
42019;DHT22;27703;51.980;5.848;2022-10-31T04:09:43;13.00;99.90
42019;DHT22;27703;51.980;5.848;2022-10-31T04:12:12;13.00;99.90
42019;DHT22;27703;51.980;5.848;2022-10-31T04:14:42;12.90;99.90
42019;DHT22;27703;51.980;5.848;2022-10-31T04:17:12;12.90;99.90
42019;DHT22;27703;51.980;5.848;2022-10-31T04:19:39;12.90;99.90
42019;DHT22;27703;51.980;5.848;2022-10-31T04:22:04;12.90;99.90
42019;DHT22;27703;51.980;5.848;2022-10-31T04:24:30;12.90;99.90
42019;DHT22;27703;51.980;5.848;2022-10-31T04:26:55;12.90;99.90
42019;DHT22;27703;51.980;5.848;2022-10-31T04:29:21;12.90;99.90
42019;DHT22;27703;51.980;5.848;2022-10-31T04:31:46;12.90;99.90
42019;DHT22;27703;51.980;5.848;2022-10-31T04:34:12;12.90;99.90
42019;DHT22;27703;51.980;5.848;2022-10-31T04:36:37;12.90;99.90
42019;DHT22;27703;51.980;5.848;2022-10-31T04:39:03;12.90;99.90
42019;DHT22;27703;51.980;5.848;2022-10-31T04:41:29;12.90;99.90
42019;DHT22;27703;51.980;5.848;2022-10-31T04:43:54;12.90;99.90
42019;DHT22;27703;51.980;5.848;2022-10-31T04:46:20;12.80;99.90
42019;DHT22;27703;51.980;5.848;2022-10-31T04:48:45;12.80;99.90
42019;DHT22;27703;51.980;5.848;2022-10-31T04:51:11;12.80;99.90
42019;DHT22;27703;51.980;5.848;2022-10-31T04:53:37;12.80;99.90
42019;DHT22;27703;51.980;5.848;2022-10-31T04:56:03;12.80;99.90
42019;DHT22;27703;51.980;5.848;2022-10-31T04:58:29;12.80;99.90
42019;DHT22;27703;51.980;5.848;2022-10-31T05:00:55;12.80;99.90
42019;DHT22;27703;51.980;5.848;2022-10-31T05:03:21;12.80;99.90
42019;DHT22;27703;51.980;5.848;2022-10-31T05:05:47;12.80;99.90
42019;DHT22;27703;51.980;5.848;2022-10-31T05:08:13;12.80;99.90
42019;DHT22;27703;51.980;5.848;2022-10-31T05:10:39;12.70;99.90
42019;DHT22;27703;51.980;5.848;2022-10-31T05:13:05;12.70;99.90
42019;DHT22;27703;51.980;5.848;2022-10-31T05:15:31;12.60;99.90
42019;DHT22;27703;51.980;5.848;2022-10-31T05:17:56;12.60;99.90
42019;DHT22;27703;51.980;5.848;2022-10-31T05:20:25;12.60;99.90
42019;DHT22;27703;51.980;5.848;2022-10-31T05:22:53;12.60;99.90
42019;DHT22;27703;51.980;5.848;2022-10-31T05:25:21;12.60;99.90
42019;DHT22;27703;51.980;5.848;2022-10-31T05:27:48;12.60;99.90
42019;DHT22;27703;51.980;5.848;2022-10-31T05:30:17;12.60;99.90
42019;DHT22;27703;51.980;5.848;2022-10-31T05:32:45;12.60;99.90
42019;DHT22;27703;51.980;5.848;2022-10-31T05:35:14;12.60;99.90
42019;DHT22;27703;51.980;5.848;2022-10-31T05:37:40;12.70;99.90
42019;DHT22;27703;51.980;5.848;2022-10-31T05:40:08;12.70;99.90
42019;DHT22;27703;51.980;5.848;2022-10-31T05:42:34;12.70;99.90
42019;DHT22;27703;51.980;5.848;2022-10-31T05:45:00;12.70;99.90
42019;DHT22;27703;51.980;5.848;2022-10-31T05:47:26;12.80;99.90
42019;DHT22;27703;51.980;5.848;2022-10-31T05:49:51;12.70;99.90
42019;DHT22;27703;51.980;5.848;2022-10-31T05:52:17;12.70;99.90
42019;DHT22;27703;51.980;5.848;2022-10-31T05:54:43;12.80;99.90
42019;DHT22;27703;51.980;5.848;2022-10-31T05:57:09;12.80;99.90
42019;DHT22;27703;51.980;5.848;2022-10-31T05:59:35;12.80;99.90
42019;DHT22;27703;51.980;5.848;2022-10-31T06:02:00;12.80;99.90
42019;DHT22;27703;51.980;5.848;2022-10-31T06:04:26;12.80;99.90
42019;DHT22;27703;51.980;5.848;2022-10-31T06:06:51;12.90;99.90
42019;DHT22;27703;51.980;5.848;2022-10-31T06:09:17;12.90;99.90
42019;DHT22;27703;51.980;5.848;2022-10-31T06:11:42;12.90;99.90
42019;DHT22;27703;51.980;5.848;2022-10-31T06:14:08;12.90;99.90
42019;DHT22;27703;51.980;5.848;2022-10-31T06:16:34;12.90;99.90
42019;DHT22;27703;51.980;5.848;2022-10-31T06:18:59;12.90;99.90
42019;DHT22;27703;51.980;5.848;2022-10-31T06:21:25;12.90;99.90
42019;DHT22;27703;51.980;5.848;2022-10-31T06:23:50;12.80;99.90
42019;DHT22;27703;51.980;5.848;2022-10-31T06:26:16;12.80;99.90
42019;DHT22;27703;51.980;5.848;2022-10-31T06:28:42;12.70;99.90
42019;DHT22;27703;51.980;5.848;2022-10-31T06:31:07;12.80;99.90
42019;DHT22;27703;51.980;5.848;2022-10-31T06:33:33;12.70;99.90
42019;DHT22;27703;51.980;5.848;2022-10-31T06:35:59;12.60;99.90
42019;DHT22;27703;51.980;5.848;2022-10-31T06:38:26;12.60;99.90
42019;DHT22;27703;51.980;5.848;2022-10-31T06:40:52;12.60;99.90
42019;DHT22;27703;51.980;5.848;2022-10-31T06:43:18;12.70;99.90
42019;DHT22;27703;51.980;5.848;2022-10-31T06:45:43;12.70;99.90
42019;DHT22;27703;51.980;5.848;2022-10-31T06:48:09;12.60;99.90
42019;DHT22;27703;51.980;5.848;2022-10-31T06:50:34;12.60;99.90
42019;DHT22;27703;51.980;5.848;2022-10-31T06:53:00;12.70;99.90
42019;DHT22;27703;51.980;5.848;2022-10-31T06:55:26;12.70;99.90
42019;DHT22;27703;51.980;5.848;2022-10-31T06:57:59;12.70;99.90
42019;DHT22;27703;51.980;5.848;2022-10-31T07:00:26;12.80;99.90
42019;DHT22;27703;51.980;5.848;2022-10-31T07:02:56;12.80;99.90
42019;DHT22;27703;51.980;5.848;2022-10-31T07:05:22;12.80;99.90
42019;DHT22;27703;51.980;5.848;2022-10-31T07:07:47;12.80;99.90
42019;DHT22;27703;51.980;5.848;2022-10-31T07:10:13;12.80;99.90
42019;DHT22;27703;51.980;5.848;2022-10-31T07:12:38;12.80;99.90
42019;DHT22;27703;51.980;5.848;2022-10-31T07:15:04;12.80;99.90
42019;DHT22;27703;51.980;5.848;2022-10-31T07:17:30;12.80;99.90
42019;DHT22;27703;51.980;5.848;2022-10-31T07:19:56;12.90;99.90
42019;DHT22;27703;51.980;5.848;2022-10-31T07:22:21;12.90;99.90
42019;DHT22;27703;51.980;5.848;2022-10-31T07:24:46;13.00;99.90
42019;DHT22;27703;51.980;5.848;2022-10-31T07:27:12;13.00;99.90
42019;DHT22;27703;51.980;5.848;2022-10-31T07:29:37;13.10;99.90
42019;DHT22;27703;51.980;5.848;2022-10-31T07:32:03;13.10;99.90
42019;DHT22;27703;51.980;5.848;2022-10-31T07:34:29;13.20;99.90
42019;DHT22;27703;51.980;5.848;2022-10-31T07:36:54;13.20;99.90
42019;DHT22;27703;51.980;5.848;2022-10-31T07:39:20;13.30;99.90
42019;DHT22;27703;51.980;5.848;2022-10-31T07:41:45;13.30;99.90
42019;DHT22;27703;51.980;5.848;2022-10-31T07:44:11;13.40;99.90
42019;DHT22;27703;51.980;5.848;2022-10-31T07:46:36;13.40;99.90
42019;DHT22;27703;51.980;5.848;2022-10-31T07:49:02;13.40;99.90
42019;DHT22;27703;51.980;5.848;2022-10-31T07:51:27;13.50;99.90
42019;DHT22;27703;51.980;5.848;2022-10-31T07:53:53;13.60;99.90
42019;DHT22;27703;51.980;5.848;2022-10-31T07:56:18;13.70;99.90
42019;DHT22;27703;51.980;5.848;2022-10-31T07:58:44;13.80;99.90
42019;DHT22;27703;51.980;5.848;2022-10-31T08:01:10;13.90;99.90
42019;DHT22;27703;51.980;5.848;2022-10-31T08:03:35;13.90;99.90
42019;DHT22;27703;51.980;5.848;2022-10-31T08:06:01;14.10;99.90
42019;DHT22;27703;51.980;5.848;2022-10-31T08:08:26;14.10;99.90
42019;DHT22;27703;51.980;5.848;2022-10-31T08:10:53;14.20;99.90
42019;DHT22;27703;51.980;5.848;2022-10-31T08:13:19;14.20;99.90
42019;DHT22;27703;51.980;5.848;2022-10-31T08:15:45;14.20;99.90
42019;DHT22;27703;51.980;5.848;2022-10-31T08:18:15;14.30;99.90
42019;DHT22;27703;51.980;5.848;2022-10-31T08:20:42;14.40;99.90
42019;DHT22;27703;51.980;5.848;2022-10-31T08:23:09;14.50;99.90
42019;DHT22;27703;51.980;5.848;2022-10-31T08:25:35;14.50;99.90
42019;DHT22;27703;51.980;5.848;2022-10-31T08:28:01;14.60;99.90
42019;DHT22;27703;51.980;5.848;2022-10-31T08:30:29;14.60;99.90
42019;DHT22;27703;51.980;5.848;2022-10-31T08:33:14;14.60;99.90
42019;DHT22;27703;51.980;5.848;2022-10-31T08:35:40;14.70;99.90
42019;DHT22;27703;51.980;5.848;2022-10-31T08:38:05;14.70;99.90
42019;DHT22;27703;51.980;5.848;2022-10-31T08:40:33;14.80;99.90
42019;DHT22;27703;51.980;5.848;2022-10-31T08:43:01;14.80;99.90
42019;DHT22;27703;51.980;5.848;2022-10-31T08:45:27;14.90;99.90
42019;DHT22;27703;51.980;5.848;2022-10-31T08:47:57;14.90;99.90
42019;DHT22;27703;51.980;5.848;2022-10-31T08:50:23;15.00;99.90
42019;DHT22;27703;51.980;5.848;2022-10-31T08:52:49;15.00;99.90
42019;DHT22;27703;51.980;5.848;2022-10-31T08:55:14;15.10;99.90
42019;DHT22;27703;51.980;5.848;2022-10-31T08:57:40;15.10;99.90
42019;DHT22;27703;51.980;5.848;2022-10-31T09:00:06;15.20;99.90
42019;DHT22;27703;51.980;5.848;2022-10-31T09:02:32;15.20;99.90
42019;DHT22;27703;51.980;5.848;2022-10-31T09:04:57;15.20;99.90
42019;DHT22;27703;51.980;5.848;2022-10-31T09:07:23;15.20;99.90
42019;DHT22;27703;51.980;5.848;2022-10-31T09:09:48;15.20;99.90
42019;DHT22;27703;51.980;5.848;2022-10-31T09:12:14;15.30;99.90
42019;DHT22;27703;51.980;5.848;2022-10-31T09:14:39;15.30;99.90
42019;DHT22;27703;51.980;5.848;2022-10-31T09:17:05;15.40;99.90
42019;DHT22;27703;51.980;5.848;2022-10-31T09:19:30;15.40;99.90
42019;DHT22;27703;51.980;5.848;2022-10-31T09:21:56;15.50;99.90
42019;DHT22;27703;51.980;5.848;2022-10-31T09:24:21;15.50;99.90
42019;DHT22;27703;51.980;5.848;2022-10-31T09:26:47;15.50;99.90
42019;DHT22;27703;51.980;5.848;2022-10-31T09:29:13;15.50;99.90
42019;DHT22;27703;51.980;5.848;2022-10-31T09:31:38;15.40;99.90
42019;DHT22;27703;51.980;5.848;2022-10-31T09:34:04;15.40;99.90
42019;DHT22;27703;51.980;5.848;2022-10-31T09:36:29;15.40;99.90
42019;DHT22;27703;51.980;5.848;2022-10-31T09:38:55;15.40;99.90
42019;DHT22;27703;51.980;5.848;2022-10-31T09:44:44;15.30;99.90
42019;DHT22;27703;51.980;5.848;2022-10-31T09:50:01;15.40;99.90
42019;DHT22;27703;51.980;5.848;2022-10-31T09:52:33;15.40;99.90
42019;DHT22;27703;51.980;5.848;2022-10-31T09:55:18;15.40;99.90
42019;DHT22;27703;51.980;5.848;2022-10-31T09:57:46;15.40;99.90
42019;DHT22;27703;51.980;5.848;2022-10-31T10:00:19;15.40;99.90
42019;DHT22;27703;51.980;5.848;2022-10-31T10:05:30;15.40;99.90
42019;DHT22;27703;51.980;5.848;2022-10-31T10:08:21;15.40;99.90
42019;DHT22;27703;51.980;5.848;2022-10-31T10:19:40;15.60;99.90
42019;DHT22;27703;51.980;5.848;2022-10-31T10:24:56;15.70;99.90
42019;DHT22;27703;51.980;5.848;2022-10-31T10:27:47;15.70;99.90
42019;DHT22;27703;51.980;5.848;2022-10-31T10:30:18;15.70;99.90
42019;DHT22;27703;51.980;5.848;2022-10-31T10:32:57;15.70;99.90
42019;DHT22;27703;51.980;5.848;2022-10-31T10:35:28;15.70;99.90
42019;DHT22;27703;51.980;5.848;2022-10-31T10:38:09;15.80;99.90
42019;DHT22;27703;51.980;5.848;2022-10-31T10:40:37;15.80;99.90
42019;DHT22;27703;51.980;5.848;2022-10-31T10:43:29;15.80;99.90
42019;DHT22;27703;51.980;5.848;2022-10-31T10:46:18;15.80;99.90
42019;DHT22;27703;51.980;5.848;2022-10-31T10:49:14;15.80;99.90
42019;DHT22;27703;51.980;5.848;2022-10-31T10:51:46;15.80;99.90
42019;DHT22;27703;51.980;5.848;2022-10-31T10:57:22;15.80;99.90
42019;DHT22;27703;51.980;5.848;2022-10-31T10:59:52;15.90;99.90
42019;DHT22;27703;51.980;5.848;2022-10-31T11:02:20;16.10;99.90
42019;DHT22;27703;51.980;5.848;2022-10-31T11:04:54;16.20;99.90
42019;DHT22;27703;51.980;5.848;2022-10-31T11:07:20;16.30;99.90
42019;DHT22;27703;51.980;5.848;2022-10-31T11:09:46;16.40;99.90
42019;DHT22;27703;51.980;5.848;2022-10-31T11:12:25;16.50;99.90
42019;DHT22;27703;51.980;5.848;2022-10-31T11:14:55;16.60;99.90
42019;DHT22;27703;51.980;5.848;2022-10-31T11:17:38;16.70;99.90
42019;DHT22;27703;51.980;5.848;2022-10-31T11:20:06;16.70;99.90
42019;DHT22;27703;51.980;5.848;2022-10-31T11:22:47;16.80;99.90
42019;DHT22;27703;51.980;5.848;2022-10-31T11:27:44;16.90;99.90
42019;DHT22;27703;51.980;5.848;2022-10-31T11:30:12;16.80;99.90
42019;DHT22;27703;51.980;5.848;2022-10-31T11:32:50;16.80;99.90
42019;DHT22;27703;51.980;5.848;2022-10-31T11:35:19;16.80;99.90
42019;DHT22;27703;51.980;5.848;2022-10-31T11:37:46;16.80;99.90
42019;DHT22;27703;51.980;5.848;2022-10-31T11:40:18;16.80;99.90
42019;DHT22;27703;51.980;5.848;2022-10-31T11:42:45;16.80;99.90
42019;DHT22;27703;51.980;5.848;2022-10-31T11:45:30;16.90;99.90
42019;DHT22;27703;51.980;5.848;2022-10-31T11:47:56;16.80;99.90
42019;DHT22;27703;51.980;5.848;2022-10-31T11:50:36;16.90;99.90
42019;DHT22;27703;51.980;5.848;2022-10-31T11:53:10;16.90;99.90
42019;DHT22;27703;51.980;5.848;2022-10-31T11:55:37;16.90;99.90
42019;DHT22;27703;51.980;5.848;2022-10-31T11:58:04;16.90;99.90
42019;DHT22;27703;51.980;5.848;2022-10-31T12:00:37;16.90;99.90
42019;DHT22;27703;51.980;5.848;2022-10-31T12:06:23;16.90;99.90
42019;DHT22;27703;51.980;5.848;2022-10-31T12:08:51;16.90;99.90
42019;DHT22;27703;51.980;5.848;2022-10-31T12:16:55;17.10;99.90
42019;DHT22;27703;51.980;5.848;2022-10-31T12:22:22;17.20;99.90
42019;DHT22;27703;51.980;5.848;2022-10-31T12:25:04;17.30;99.90
42019;DHT22;27703;51.980;5.848;2022-10-31T12:27:58;17.30;99.90
42019;DHT22;27703;51.980;5.848;2022-10-31T12:30:33;17.30;99.90
42019;DHT22;27703;51.980;5.848;2022-10-31T12:36:15;17.20;99.90
42019;DHT22;27703;51.980;5.848;2022-10-31T12:58:40;17.60;99.90
42019;DHT22;27703;51.980;5.848;2022-10-31T13:01:17;17.70;99.90
42019;DHT22;27703;51.980;5.848;2022-10-31T13:03:46;17.70;99.90
42019;DHT22;27703;51.980;5.848;2022-10-31T13:06:18;17.70;99.90
42019;DHT22;27703;51.980;5.848;2022-10-31T13:08:52;17.70;99.90
42019;DHT22;27703;51.980;5.848;2022-10-31T13:11:30;17.80;99.90
42019;DHT22;27703;51.980;5.848;2022-10-31T13:14:05;17.90;99.90
42019;DHT22;27703;51.980;5.848;2022-10-31T13:16:36;18.00;99.90
42019;DHT22;27703;51.980;5.848;2022-10-31T13:19:28;18.00;99.90
42019;DHT22;27703;51.980;5.848;2022-10-31T13:22:24;18.00;99.90
42019;DHT22;27703;51.980;5.848;2022-10-31T13:25:10;17.90;99.90
42019;DHT22;27703;51.980;5.848;2022-10-31T13:27:46;17.90;99.90
42019;DHT22;27703;51.980;5.848;2022-10-31T13:30:15;17.80;99.90
42019;DHT22;27703;51.980;5.848;2022-10-31T13:45:58;17.70;99.90
42019;DHT22;27703;51.980;5.848;2022-10-31T13:51:04;17.70;99.90
42019;DHT22;27703;51.980;5.848;2022-10-31T13:56:21;17.70;99.90
42019;DHT22;27703;51.980;5.848;2022-10-31T14:01:33;17.70;99.90
42019;DHT22;27703;51.980;5.848;2022-10-31T14:07:08;17.60;99.90
42019;DHT22;27703;51.980;5.848;2022-10-31T14:09:36;17.60;99.90
42019;DHT22;27703;51.980;5.848;2022-10-31T14:13:03;17.60;99.90
42019;DHT22;27703;51.980;5.848;2022-10-31T14:15:14;17.60;99.90
42019;DHT22;27703;51.980;5.848;2022-10-31T14:17:48;17.60;99.90
42019;DHT22;27703;51.980;5.848;2022-10-31T14:22:41;17.60;99.90
42019;DHT22;27703;51.980;5.848;2022-10-31T14:25:34;17.60;99.90
42019;DHT22;27703;51.980;5.848;2022-10-31T14:28:05;17.50;99.90
42019;DHT22;27703;51.980;5.848;2022-10-31T14:30:54;17.50;99.90
42019;DHT22;27703;51.980;5.848;2022-10-31T14:33:20;17.50;99.90
42019;DHT22;27703;51.980;5.848;2022-10-31T14:35:56;17.40;99.90
42019;DHT22;27703;51.980;5.848;2022-10-31T14:49:27;17.30;99.90
42019;DHT22;27703;51.980;5.848;2022-10-31T14:51:56;17.30;99.90
42019;DHT22;27703;51.980;5.848;2022-10-31T14:54:32;17.30;99.90
42019;DHT22;27703;51.980;5.848;2022-10-31T14:57:04;17.20;99.90
42019;DHT22;27703;51.980;5.848;2022-10-31T14:59:35;17.20;99.90
42019;DHT22;27703;51.980;5.848;2022-10-31T15:02:12;17.20;99.90
42019;DHT22;27703;51.980;5.848;2022-10-31T15:04:40;17.20;99.90
42019;DHT22;27703;51.980;5.848;2022-10-31T15:07:25;17.20;99.90
42019;DHT22;27703;51.980;5.848;2022-10-31T15:09:59;17.20;99.90
42019;DHT22;27703;51.980;5.848;2022-10-31T15:12:28;17.20;99.90
42019;DHT22;27703;51.980;5.848;2022-10-31T15:14:54;17.20;99.90
42019;DHT22;27703;51.980;5.848;2022-10-31T15:17:24;17.10;99.90
42019;DHT22;27703;51.980;5.848;2022-10-31T15:19:51;17.10;99.90
42019;DHT22;27703;51.980;5.848;2022-10-31T15:22:19;17.10;99.90
42019;DHT22;27703;51.980;5.848;2022-10-31T15:24:45;17.10;99.90
42019;DHT22;27703;51.980;5.848;2022-10-31T15:27:15;17.10;99.90
42019;DHT22;27703;51.980;5.848;2022-10-31T15:29:53;17.00;99.90
42019;DHT22;27703;51.980;5.848;2022-10-31T15:32:24;17.00;99.90
42019;DHT22;27703;51.980;5.848;2022-10-31T15:34:51;17.00;99.90
42019;DHT22;27703;51.980;5.848;2022-10-31T15:37:19;16.90;99.90
42019;DHT22;27703;51.980;5.848;2022-10-31T15:39:47;16.90;99.90
42019;DHT22;27703;51.980;5.848;2022-10-31T15:42:28;16.90;99.90
42019;DHT22;27703;51.980;5.848;2022-10-31T15:47:46;17.00;99.90
42019;DHT22;27703;51.980;5.848;2022-10-31T15:50:41;16.90;99.90
42019;DHT22;27703;51.980;5.848;2022-10-31T15:53:18;16.90;99.90
42019;DHT22;27703;51.980;5.848;2022-10-31T15:55:49;16.90;99.90
42019;DHT22;27703;51.980;5.848;2022-10-31T15:58:16;16.90;99.90
42019;DHT22;27703;51.980;5.848;2022-10-31T16:00:42;16.90;99.90
42019;DHT22;27703;51.980;5.848;2022-10-31T16:03:23;16.80;99.90
42019;DHT22;27703;51.980;5.848;2022-10-31T16:05:52;16.80;99.90
42019;DHT22;27703;51.980;5.848;2022-10-31T16:13:57;16.80;99.90
42019;DHT22;27703;51.980;5.848;2022-10-31T16:16:23;16.70;99.90
42019;DHT22;27703;51.980;5.848;2022-10-31T16:18:51;16.70;99.90
42019;DHT22;27703;51.980;5.848;2022-10-31T16:21:30;16.70;99.90
42019;DHT22;27703;51.980;5.848;2022-10-31T16:24:20;16.70;99.90
42019;DHT22;27703;51.980;5.848;2022-10-31T16:26:52;16.70;99.90
42019;DHT22;27703;51.980;5.848;2022-10-31T16:29:37;16.70;99.90
42019;DHT22;27703;51.980;5.848;2022-10-31T16:32:03;16.60;99.90
42019;DHT22;27703;51.980;5.848;2022-10-31T16:34:29;16.60;99.90
42019;DHT22;27703;51.980;5.848;2022-10-31T16:36:54;16.60;99.90
42019;DHT22;27703;51.980;5.848;2022-10-31T16:39:20;16.60;99.90
42019;DHT22;27703;51.980;5.848;2022-10-31T16:41:50;16.50;99.90
42019;DHT22;27703;51.980;5.848;2022-10-31T16:44:19;16.50;99.90
42019;DHT22;27703;51.980;5.848;2022-10-31T16:46:46;16.50;99.90
42019;DHT22;27703;51.980;5.848;2022-10-31T16:49:12;16.50;99.90
42019;DHT22;27703;51.980;5.848;2022-10-31T16:51:38;16.50;99.90
42019;DHT22;27703;51.980;5.848;2022-10-31T16:54:03;16.40;99.90
42019;DHT22;27703;51.980;5.848;2022-10-31T16:56:31;16.40;99.90
42019;DHT22;27703;51.980;5.848;2022-10-31T16:58:58;16.40;99.90
42019;DHT22;27703;51.980;5.848;2022-10-31T17:01:24;16.40;99.90
42019;DHT22;27703;51.980;5.848;2022-10-31T17:03:50;16.40;99.90
42019;DHT22;27703;51.980;5.848;2022-10-31T17:06:16;16.40;99.90
42019;DHT22;27703;51.980;5.848;2022-10-31T17:08:41;16.40;99.90
42019;DHT22;27703;51.980;5.848;2022-10-31T17:11:14;16.30;99.90
42019;DHT22;27703;51.980;5.848;2022-10-31T17:13:40;16.30;99.90
42019;DHT22;27703;51.980;5.848;2022-10-31T17:16:06;16.30;99.90
42019;DHT22;27703;51.980;5.848;2022-10-31T17:18:31;16.30;99.90
42019;DHT22;27703;51.980;5.848;2022-10-31T17:20:59;16.30;99.90
42019;DHT22;27703;51.980;5.848;2022-10-31T17:23:25;16.20;99.90
42019;DHT22;27703;51.980;5.848;2022-10-31T17:25:51;16.20;99.90
42019;DHT22;27703;51.980;5.848;2022-10-31T17:28:16;16.20;99.90
42019;DHT22;27703;51.980;5.848;2022-10-31T17:30:42;16.20;99.90
42019;DHT22;27703;51.980;5.848;2022-10-31T17:33:12;16.20;99.90
42019;DHT22;27703;51.980;5.848;2022-10-31T17:35:40;16.20;99.90
42019;DHT22;27703;51.980;5.848;2022-10-31T17:38:05;16.10;99.90
42019;DHT22;27703;51.980;5.848;2022-10-31T17:40:31;16.10;99.90
42019;DHT22;27703;51.980;5.848;2022-10-31T17:42:57;16.10;99.90
42019;DHT22;27703;51.980;5.848;2022-10-31T17:45:25;16.10;99.90
42019;DHT22;27703;51.980;5.848;2022-10-31T17:47:51;16.10;99.90
42019;DHT22;27703;51.980;5.848;2022-10-31T17:50:21;16.10;99.90
42019;DHT22;27703;51.980;5.848;2022-10-31T17:52:47;16.10;99.90
42019;DHT22;27703;51.980;5.848;2022-10-31T17:55:13;16.10;99.90
42019;DHT22;27703;51.980;5.848;2022-10-31T17:57:39;16.10;99.90